sensor_id;sensor_type;location;lat;lon;timestamp;P1;P2;P0
70691;PMS5003;58267;51.156;17.044;2023-04-15T00:00:56;47;46;
70691;PMS5003;58267;51.156;17.044;2023-04-15T00:03:21;75;69;
70691;PMS5003;58267;51.156;17.044;2023-04-15T00:05:46;43;42;
70691;PMS5003;58267;51.156;17.044;2023-04-15T00:08:11;35;35;
70691;PMS5003;58267;51.156;17.044;2023-04-15T00:10:37;36;35;
70691;PMS5003;58267;51.156;17.044;2023-04-15T00:13:02;37;36;
70691;PMS5003;58267;51.156;17.044;2023-04-15T00:15:28;39;35;
70691;PMS5003;58267;51.156;17.044;2023-04-15T00:17:53;36;35;
70691;PMS5003;58267;51.156;17.044;2023-04-15T00:20:19;35;34;
70691;PMS5003;58267;51.156;17.044;2023-04-15T00:22:44;30;30;
70691;PMS5003;58267;51.156;17.044;2023-04-15T00:25:10;37;35;
70691;PMS5003;58267;51.156;17.044;2023-04-15T00:27:35;36;34;
70691;PMS5003;58267;51.156;17.044;2023-04-15T00:30:00;30;30;
70691;PMS5003;58267;51.156;17.044;2023-04-15T00:32:26;37;34;
70691;PMS5003;58267;51.156;17.044;2023-04-15T00:34:52;40;39;
70691;PMS5003;58267;51.156;17.044;2023-04-15T00:37:18;36;34;
70691;PMS5003;58267;51.156;17.044;2023-04-15T00:39:43;31;30;
70691;PMS5003;58267;51.156;17.044;2023-04-15T00:42:09;31;30;
70691;PMS5003;58267;51.156;17.044;2023-04-15T00:44:34;32;32;
70691;PMS5003;58267;51.156;17.044;2023-04-15T00:47:00;36;34;
70691;PMS5003;58267;51.156;17.044;2023-04-15T00:49:26;31;30;
70691;PMS5003;58267;51.156;17.044;2023-04-15T00:51:51;35;32;
70691;PMS5003;58267;51.156;17.044;2023-04-15T00:54:17;38;37;
70691;PMS5003;58267;51.156;17.044;2023-04-15T00:56:42;33;32;
70691;PMS5003;58267;51.156;17.044;2023-04-15T00:59:08;32;32;
70691;PMS5003;58267;51.156;17.044;2023-04-15T01:01:33;37;31;
70691;PMS5003;58267;51.156;17.044;2023-04-15T01:03:59;30;29;
70691;PMS5003;58267;51.156;17.044;2023-04-15T01:06:24;36;31;
70691;PMS5003;58267;51.156;17.044;2023-04-15T01:08:50;37;34;
70691;PMS5003;58267;51.156;17.044;2023-04-15T01:11:15;33;32;
70691;PMS5003;58267;51.156;17.044;2023-04-15T01:13:40;34;32;
70691;PMS5003;58267;51.156;17.044;2023-04-15T01:16:06;33;31;
70691;PMS5003;58267;51.156;17.044;2023-04-15T01:18:31;33;33;
70691;PMS5003;58267;51.156;17.044;2023-04-15T01:20:56;36;33;
70691;PMS5003;58267;51.156;17.044;2023-04-15T01:23:21;33;32;
70691;PMS5003;58267;51.156;17.044;2023-04-15T01:25:47;36;34;
70691;PMS5003;58267;51.156;17.044;2023-04-15T01:28:13;37;36;
70691;PMS5003;58267;51.156;17.044;2023-04-15T01:30:38;33;32;
70691;PMS5003;58267;51.156;17.044;2023-04-15T01:33:04;34;33;
70691;PMS5003;58267;51.156;17.044;2023-04-15T01:35:30;35;33;
70691;PMS5003;58267;51.156;17.044;2023-04-15T01:37:56;33;32;
70691;PMS5003;58267;51.156;17.044;2023-04-15T01:40:21;34;34;
70691;PMS5003;58267;51.156;17.044;2023-04-15T01:42:47;34;34;
70691;PMS5003;58267;51.156;17.044;2023-04-15T01:45:12;37;37;
70691;PMS5003;58267;51.156;17.044;2023-04-15T01:47:38;35;35;
70691;PMS5003;58267;51.156;17.044;2023-04-15T01:50:04;37;36;
70691;PMS5003;58267;51.156;17.044;2023-04-15T01:52:29;34;31;
70691;PMS5003;58267;51.156;17.044;2023-04-15T01:54:55;37;35;
70691;PMS5003;58267;51.156;17.044;2023-04-15T01:57:20;41;37;
70691;PMS5003;58267;51.156;17.044;2023-04-15T01:59:45;35;34;
70691;PMS5003;58267;51.156;17.044;2023-04-15T02:02:11;41;40;
70691;PMS5003;58267;51.156;17.044;2023-04-15T02:04:37;40;38;
70691;PMS5003;58267;51.156;17.044;2023-04-15T02:07:02;38;37;
70691;PMS5003;58267;51.156;17.044;2023-04-15T02:09:28;36;35;
70691;PMS5003;58267;51.156;17.044;2023-04-15T02:11:54;36;34;
70691;PMS5003;58267;51.156;17.044;2023-04-15T02:14:19;35;35;
70691;PMS5003;58267;51.156;17.044;2023-04-15T02:16:45;31;31;
70691;PMS5003;58267;51.156;17.044;2023-04-15T02:19:11;37;35;
70691;PMS5003;58267;51.156;17.044;2023-04-15T02:21:36;33;33;
70691;PMS5003;58267;51.156;17.044;2023-04-15T02:24:01;35;33;
70691;PMS5003;58267;51.156;17.044;2023-04-15T02:26:27;31;28;
70691;PMS5003;58267;51.156;17.044;2023-04-15T02:28:52;36;35;
70691;PMS5003;58267;51.156;17.044;2023-04-15T02:31:18;31;29;
70691;PMS5003;58267;51.156;17.044;2023-04-15T02:33:43;35;34;
70691;PMS5003;58267;51.156;17.044;2023-04-15T02:36:09;32;32;
70691;PMS5003;58267;51.156;17.044;2023-04-15T02:38:34;32;32;
70691;PMS5003;58267;51.156;17.044;2023-04-15T02:41:00;36;35;
70691;PMS5003;58267;51.156;17.044;2023-04-15T02:43:25;33;33;
70691;PMS5003;58267;51.156;17.044;2023-04-15T02:45:50;35;33;
70691;PMS5003;58267;51.156;17.044;2023-04-15T02:48:16;35;34;
70691;PMS5003;58267;51.156;17.044;2023-04-15T02:50:41;34;33;
70691;PMS5003;58267;51.156;17.044;2023-04-15T02:53:07;38;35;
70691;PMS5003;58267;51.156;17.044;2023-04-15T02:55:32;37;36;
70691;PMS5003;58267;51.156;17.044;2023-04-15T02:57:58;34;33;
70691;PMS5003;58267;51.156;17.044;2023-04-15T03:00:23;36;34;
70691;PMS5003;58267;51.156;17.044;2023-04-15T03:02:49;32;31;
70691;PMS5003;58267;51.156;17.044;2023-04-15T03:05:14;37;37;
70691;PMS5003;58267;51.156;17.044;2023-04-15T03:07:39;36;35;
70691;PMS5003;58267;51.156;17.044;2023-04-15T03:10:06;39;36;
70691;PMS5003;58267;51.156;17.044;2023-04-15T03:12:31;37;36;
70691;PMS5003;58267;51.156;17.044;2023-04-15T03:14:56;35;34;
70691;PMS5003;58267;51.156;17.044;2023-04-15T03:17:22;35;35;
70691;PMS5003;58267;51.156;17.044;2023-04-15T03:19:48;32;31;
70691;PMS5003;58267;51.156;17.044;2023-04-15T03:22:14;38;37;
70691;PMS5003;58267;51.156;17.044;2023-04-15T03:24:39;39;36;
70691;PMS5003;58267;51.156;17.044;2023-04-15T03:27:04;35;34;
70691;PMS5003;58267;51.156;17.044;2023-04-15T03:29:30;34;33;
70691;PMS5003;58267;51.156;17.044;2023-04-15T03:31:55;39;38;
70691;PMS5003;58267;51.156;17.044;2023-04-15T03:34:20;35;34;
70691;PMS5003;58267;51.156;17.044;2023-04-15T03:36:45;40;38;
70691;PMS5003;58267;51.156;17.044;2023-04-15T03:39:11;36;35;
70691;PMS5003;58267;51.156;17.044;2023-04-15T03:41:36;39;38;
70691;PMS5003;58267;51.156;17.044;2023-04-15T03:44:02;39;39;
70691;PMS5003;58267;51.156;17.044;2023-04-15T03:46:28;36;34;
70691;PMS5003;58267;51.156;17.044;2023-04-15T03:48:53;35;35;
70691;PMS5003;58267;51.156;17.044;2023-04-15T03:51:19;40;38;
70691;PMS5003;58267;51.156;17.044;2023-04-15T03:53:44;38;34;
70691;PMS5003;58267;51.156;17.044;2023-04-15T03:56:09;39;37;
70691;PMS5003;58267;51.156;17.044;2023-04-15T03:58:35;31;30;
70691;PMS5003;58267;51.156;17.044;2023-04-15T04:01:01;40;37;
70691;PMS5003;58267;51.156;17.044;2023-04-15T04:03:27;35;34;
70691;PMS5003;58267;51.156;17.044;2023-04-15T04:05:53;44;38;
70691;PMS5003;58267;51.156;17.044;2023-04-15T04:08:18;34;33;
70691;PMS5003;58267;51.156;17.044;2023-04-15T04:10:44;37;35;
70691;PMS5003;58267;51.156;17.044;2023-04-15T04:13:09;37;35;
70691;PMS5003;58267;51.156;17.044;2023-04-15T04:15:35;34;32;
70691;PMS5003;58267;51.156;17.044;2023-04-15T04:18:00;36;33;
70691;PMS5003;58267;51.156;17.044;2023-04-15T04:20:26;41;39;
70691;PMS5003;58267;51.156;17.044;2023-04-15T04:22:52;34;33;
70691;PMS5003;58267;51.156;17.044;2023-04-15T04:25:17;34;33;
70691;PMS5003;58267;51.156;17.044;2023-04-15T04:27:42;36;34;
70691;PMS5003;58267;51.156;17.044;2023-04-15T04:30:08;34;33;
70691;PMS5003;58267;51.156;17.044;2023-04-15T04:32:33;36;36;
70691;PMS5003;58267;51.156;17.044;2023-04-15T04:34:58;36;36;
70691;PMS5003;58267;51.156;17.044;2023-04-15T04:37:24;34;33;
70691;PMS5003;58267;51.156;17.044;2023-04-15T04:39:49;32;30;
70691;PMS5003;58267;51.156;17.044;2023-04-15T04:42:14;30;29;
70691;PMS5003;58267;51.156;17.044;2023-04-15T04:44:39;30;29;
70691;PMS5003;58267;51.156;17.044;2023-04-15T04:47:05;26;25;
70691;PMS5003;58267;51.156;17.044;2023-04-15T04:49:31;25;24;
70691;PMS5003;58267;51.156;17.044;2023-04-15T04:51:56;21;21;
70691;PMS5003;58267;51.156;17.044;2023-04-15T04:54:22;20;20;
70691;PMS5003;58267;51.156;17.044;2023-04-15T04:56:47;18;17;
70691;PMS5003;58267;51.156;17.044;2023-04-15T04:59:13;19;18;
70691;PMS5003;58267;51.156;17.044;2023-04-15T05:01:39;18;17;
70691;PMS5003;58267;51.156;17.044;2023-04-15T05:04:05;17;17;
70691;PMS5003;58267;51.156;17.044;2023-04-15T05:06:30;17;16;
70691;PMS5003;58267;51.156;17.044;2023-04-15T05:08:55;17;17;
70691;PMS5003;58267;51.156;17.044;2023-04-15T05:11:21;17;16;
70691;PMS5003;58267;51.156;17.044;2023-04-15T05:13:47;19;19;
70691;PMS5003;58267;51.156;17.044;2023-04-15T05:16:13;16;14;
70691;PMS5003;58267;51.156;17.044;2023-04-15T05:18:39;14;13;
70691;PMS5003;58267;51.156;17.044;2023-04-15T05:21:04;14;14;
70691;PMS5003;58267;51.156;17.044;2023-04-15T05:23:30;16;15;
70691;PMS5003;58267;51.156;17.044;2023-04-15T05:25:55;16;16;
70691;PMS5003;58267;51.156;17.044;2023-04-15T05:28:21;16;15;
70691;PMS5003;58267;51.156;17.044;2023-04-15T05:30:46;18;18;
70691;PMS5003;58267;51.156;17.044;2023-04-15T05:33:11;21;19;
70691;PMS5003;58267;51.156;17.044;2023-04-15T05:35:36;16;16;
70691;PMS5003;58267;51.156;17.044;2023-04-15T05:38:02;19;19;
70691;PMS5003;58267;51.156;17.044;2023-04-15T05:40:28;18;17;
70691;PMS5003;58267;51.156;17.044;2023-04-15T05:42:54;18;17;
70691;PMS5003;58267;51.156;17.044;2023-04-15T05:45:19;20;19;
70691;PMS5003;58267;51.156;17.044;2023-04-15T05:47:44;22;21;
70691;PMS5003;58267;51.156;17.044;2023-04-15T05:50:11;23;21;
70691;PMS5003;58267;51.156;17.044;2023-04-15T05:52:37;19;17;
70691;PMS5003;58267;51.156;17.044;2023-04-15T05:55:03;15;15;
70691;PMS5003;58267;51.156;17.044;2023-04-15T05:57:28;13;13;
70691;PMS5003;58267;51.156;17.044;2023-04-15T05:59:53;10;9;
70691;PMS5003;58267;51.156;17.044;2023-04-15T06:02:19;11;11;
70691;PMS5003;58267;51.156;17.044;2023-04-15T06:04:45;11;11;
70691;PMS5003;58267;51.156;17.044;2023-04-15T06:07:10;6;6;
70691;PMS5003;58267;51.156;17.044;2023-04-15T06:09:35;5;5;
70691;PMS5003;58267;51.156;17.044;2023-04-15T06:12:00;7;7;
70691;PMS5003;58267;51.156;17.044;2023-04-15T06:14:25;8;7;
70691;PMS5003;58267;51.156;17.044;2023-04-15T06:16:51;5;5;
70691;PMS5003;58267;51.156;17.044;2023-04-15T06:19:16;4;4;
70691;PMS5003;58267;51.156;17.044;2023-04-15T06:21:41;6;6;
70691;PMS5003;58267;51.156;17.044;2023-04-15T06:24:06;6;6;
70691;PMS5003;58267;51.156;17.044;2023-04-15T06:26:31;7;6;
70691;PMS5003;58267;51.156;17.044;2023-04-15T06:28:57;7;6;
70691;PMS5003;58267;51.156;17.044;2023-04-15T06:31:22;8;7;
70691;PMS5003;58267;51.156;17.044;2023-04-15T06:33:47;4;4;
70691;PMS5003;58267;51.156;17.044;2023-04-15T06:36:12;4;4;
70691;PMS5003;58267;51.156;17.044;2023-04-15T06:38:37;6;6;
70691;PMS5003;58267;51.156;17.044;2023-04-15T06:41:03;5;5;
70691;PMS5003;58267;51.156;17.044;2023-04-15T06:43:29;4;4;
70691;PMS5003;58267;51.156;17.044;2023-04-15T06:45:54;5;5;
70691;PMS5003;58267;51.156;17.044;2023-04-15T06:48:19;4;4;
70691;PMS5003;58267;51.156;17.044;2023-04-15T06:50:44;4;4;
70691;PMS5003;58267;51.156;17.044;2023-04-15T06:53:09;4;4;
70691;PMS5003;58267;51.156;17.044;2023-04-15T06:55:35;5;5;
70691;PMS5003;58267;51.156;17.044;2023-04-15T06:58:00;4;4;
70691;PMS5003;58267;51.156;17.044;2023-04-15T07:00:25;7;6;
70691;PMS5003;58267;51.156;17.044;2023-04-15T07:02:50;5;5;
70691;PMS5003;58267;51.156;17.044;2023-04-15T07:05:15;3;3;
70691;PMS5003;58267;51.156;17.044;2023-04-15T07:07:41;3;3;
70691;PMS5003;58267;51.156;17.044;2023-04-15T07:10:06;3;3;
70691;PMS5003;58267;51.156;17.044;2023-04-15T07:12:31;2;2;
70691;PMS5003;58267;51.156;17.044;2023-04-15T07:14:56;5;4;
70691;PMS5003;58267;51.156;17.044;2023-04-15T07:17:21;6;5;
70691;PMS5003;58267;51.156;17.044;2023-04-15T07:19:46;4;4;
70691;PMS5003;58267;51.156;17.044;2023-04-15T07:22:12;2;2;
70691;PMS5003;58267;51.156;17.044;2023-04-15T07:24:37;4;3;
70691;PMS5003;58267;51.156;17.044;2023-04-15T07:27:02;3;3;
70691;PMS5003;58267;51.156;17.044;2023-04-15T07:29:27;3;3;
70691;PMS5003;58267;51.156;17.044;2023-04-15T07:31:53;6;5;
70691;PMS5003;58267;51.156;17.044;2023-04-15T07:34:18;4;4;
70691;PMS5003;58267;51.156;17.044;2023-04-15T07:36:43;5;5;
70691;PMS5003;58267;51.156;17.044;2023-04-15T07:39:08;4;4;
70691;PMS5003;58267;51.156;17.044;2023-04-15T07:41:33;3;3;
70691;PMS5003;58267;51.156;17.044;2023-04-15T07:43:58;5;4;
70691;PMS5003;58267;51.156;17.044;2023-04-15T07:46:24;3;3;
70691;PMS5003;58267;51.156;17.044;2023-04-15T07:48:49;4;3;
70691;PMS5003;58267;51.156;17.044;2023-04-15T07:51:14;4;4;
70691;PMS5003;58267;51.156;17.044;2023-04-15T07:53:39;3;3;
70691;PMS5003;58267;51.156;17.044;2023-04-15T07:56:04;3;3;
70691;PMS5003;58267;51.156;17.044;2023-04-15T07:58:29;5;5;
70691;PMS5003;58267;51.156;17.044;2023-04-15T08:00:55;4;4;
70691;PMS5003;58267;51.156;17.044;2023-04-15T08:03:20;5;4;
70691;PMS5003;58267;51.156;17.044;2023-04-15T08:05:45;5;4;
70691;PMS5003;58267;51.156;17.044;2023-04-15T08:08:10;3;3;
70691;PMS5003;58267;51.156;17.044;2023-04-15T08:10:36;3;3;
70691;PMS5003;58267;51.156;17.044;2023-04-15T08:13:00;2;2;
70691;PMS5003;58267;51.156;17.044;2023-04-15T08:15:26;4;4;
70691;PMS5003;58267;51.156;17.044;2023-04-15T08:17:51;3;3;
70691;PMS5003;58267;51.156;17.044;2023-04-15T08:20:16;4;4;
70691;PMS5003;58267;51.156;17.044;2023-04-15T08:22:41;2;2;
70691;PMS5003;58267;51.156;17.044;2023-04-15T08:25:07;2;2;
70691;PMS5003;58267;51.156;17.044;2023-04-15T08:27:32;1;1;
70691;PMS5003;58267;51.156;17.044;2023-04-15T08:29:57;4;4;
70691;PMS5003;58267;51.156;17.044;2023-04-15T08:32:22;4;4;
70691;PMS5003;58267;51.156;17.044;2023-04-15T08:34:47;3;3;
70691;PMS5003;58267;51.156;17.044;2023-04-15T08:37:12;3;3;
70691;PMS5003;58267;51.156;17.044;2023-04-15T08:39:37;2;2;
70691;PMS5003;58267;51.156;17.044;2023-04-15T08:42:03;2;2;
70691;PMS5003;58267;51.156;17.044;2023-04-15T08:44:28;3;3;
70691;PMS5003;58267;51.156;17.044;2023-04-15T08:46:53;3;3;
70691;PMS5003;58267;51.156;17.044;2023-04-15T08:49:18;1;1;
70691;PMS5003;58267;51.156;17.044;2023-04-15T08:51:43;1;0;
70691;PMS5003;58267;51.156;17.044;2023-04-15T08:54:08;2;2;
70691;PMS5003;58267;51.156;17.044;2023-04-15T08:56:34;1;1;
70691;PMS5003;58267;51.156;17.044;2023-04-15T08:58:59;1;1;
70691;PMS5003;58267;51.156;17.044;2023-04-15T09:01:24;2;2;
70691;PMS5003;58267;51.156;17.044;2023-04-15T09:03:50;1;1;
70691;PMS5003;58267;51.156;17.044;2023-04-15T09:06:15;2;2;
70691;PMS5003;58267;51.156;17.044;2023-04-15T09:08:40;2;2;
70691;PMS5003;58267;51.156;17.044;2023-04-15T09:11:05;3;3;
70691;PMS5003;58267;51.156;17.044;2023-04-15T09:13:30;3;3;
70691;PMS5003;58267;51.156;17.044;2023-04-15T09:15:56;3;3;
70691;PMS5003;58267;51.156;17.044;2023-04-15T09:18:26;1;1;
70691;PMS5003;58267;51.156;17.044;2023-04-15T09:20:46;1;1;
70691;PMS5003;58267;51.156;17.044;2023-04-15T09:23:11;3;3;
70691;PMS5003;58267;51.156;17.044;2023-04-15T09:25:37;17;16;
70691;PMS5003;58267;51.156;17.044;2023-04-15T09:28:02;2;2;
70691;PMS5003;58267;51.156;17.044;2023-04-15T09:30:28;15;14;
70691;PMS5003;58267;51.156;17.044;2023-04-15T09:32:54;3;3;
70691;PMS5003;58267;51.156;17.044;2023-04-15T09:35:18;3;2;
70691;PMS5003;58267;51.156;17.044;2023-04-15T09:37:43;3;3;
70691;PMS5003;58267;51.156;17.044;2023-04-15T09:40:09;3;3;
70691;PMS5003;58267;51.156;17.044;2023-04-15T09:42:34;8;7;
70691;PMS5003;58267;51.156;17.044;2023-04-15T09:47:26;5;4;
70691;PMS5003;58267;51.156;17.044;2023-04-15T09:49:54;2;2;
70691;PMS5003;58267;51.156;17.044;2023-04-15T09:52:16;3;3;
70691;PMS5003;58267;51.156;17.044;2023-04-15T09:54:43;4;4;
70691;PMS5003;58267;51.156;17.044;2023-04-15T09:57:07;1;1;
70691;PMS5003;58267;51.156;17.044;2023-04-15T09:59:32;1;1;
70691;PMS5003;58267;51.156;17.044;2023-04-15T10:01:57;2;2;
70691;PMS5003;58267;51.156;17.044;2023-04-15T10:04:22;1;1;
70691;PMS5003;58267;51.156;17.044;2023-04-15T10:06:47;5;4;
70691;PMS5003;58267;51.156;17.044;2023-04-15T10:09:13;1;1;
70691;PMS5003;58267;51.156;17.044;2023-04-15T10:11:38;6;5;
70691;PMS5003;58267;51.156;17.044;2023-04-15T10:14:03;2;2;
70691;PMS5003;58267;51.156;17.044;2023-04-15T10:16:28;2;2;
70691;PMS5003;58267;51.156;17.044;2023-04-15T10:18:54;1;1;
70691;PMS5003;58267;51.156;17.044;2023-04-15T10:21:18;5;5;
70691;PMS5003;58267;51.156;17.044;2023-04-15T10:23:44;3;3;
70691;PMS5003;58267;51.156;17.044;2023-04-15T10:26:09;5;4;
70691;PMS5003;58267;51.156;17.044;2023-04-15T10:28:34;2;1;
70691;PMS5003;58267;51.156;17.044;2023-04-15T10:30:59;2;2;
70691;PMS5003;58267;51.156;17.044;2023-04-15T10:33:24;1;1;
70691;PMS5003;58267;51.156;17.044;2023-04-15T10:35:50;3;3;
70691;PMS5003;58267;51.156;17.044;2023-04-15T10:40:40;2;2;
70691;PMS5003;58267;51.156;17.044;2023-04-15T10:43:05;2;2;
70691;PMS5003;58267;51.156;17.044;2023-04-15T10:45:31;0;0;
70691;PMS5003;58267;51.156;17.044;2023-04-15T10:47:55;5;3;
70691;PMS5003;58267;51.156;17.044;2023-04-15T10:50:20;0;0;
70691;PMS5003;58267;51.156;17.044;2023-04-15T10:52:48;0;0;
70691;PMS5003;58267;51.156;17.044;2023-04-15T10:55:12;1;1;
70691;PMS5003;58267;51.156;17.044;2023-04-15T10:57:37;1;1;
70691;PMS5003;58267;51.156;17.044;2023-04-15T11:00:03;0;0;
70691;PMS5003;58267;51.156;17.044;2023-04-15T11:04:52;2;2;
70691;PMS5003;58267;51.156;17.044;2023-04-15T11:09:42;4;4;
70691;PMS5003;58267;51.156;17.044;2023-04-15T11:12:07;2;2;
70691;PMS5003;58267;51.156;17.044;2023-04-15T11:14:32;1;1;
70691;PMS5003;58267;51.156;17.044;2023-04-15T11:16:57;1;1;
70691;PMS5003;58267;51.156;17.044;2023-04-15T11:19:22;1;1;
70691;PMS5003;58267;51.156;17.044;2023-04-15T11:21:47;2;2;
70691;PMS5003;58267;51.156;17.044;2023-04-15T11:26:38;2;2;
70691;PMS5003;58267;51.156;17.044;2023-04-15T11:29:03;2;2;
70691;PMS5003;58267;51.156;17.044;2023-04-15T11:31:28;1;1;
70691;PMS5003;58267;51.156;17.044;2023-04-15T11:33:53;1;1;
70691;PMS5003;58267;51.156;17.044;2023-04-15T11:36:18;1;1;
70691;PMS5003;58267;51.156;17.044;2023-04-15T11:38:45;1;1;
70691;PMS5003;58267;51.156;17.044;2023-04-15T11:41:09;2;1;
70691;PMS5003;58267;51.156;17.044;2023-04-15T11:43:35;1;1;
70691;PMS5003;58267;51.156;17.044;2023-04-15T11:46:00;2;2;
70691;PMS5003;58267;51.156;17.044;2023-04-15T11:48:25;1;1;
70691;PMS5003;58267;51.156;17.044;2023-04-15T11:50:54;0;0;
70691;PMS5003;58267;51.156;17.044;2023-04-15T11:53:15;2;2;
70691;PMS5003;58267;51.156;17.044;2023-04-15T11:55:41;1;1;
70691;PMS5003;58267;51.156;17.044;2023-04-15T11:58:07;2;2;
70691;PMS5003;58267;51.156;17.044;2023-04-15T12:00:31;2;2;
70691;PMS5003;58267;51.156;17.044;2023-04-15T12:05:21;3;3;
70691;PMS5003;58267;51.156;17.044;2023-04-15T12:10:11;3;3;
70691;PMS5003;58267;51.156;17.044;2023-04-15T12:12:36;3;2;
70691;PMS5003;58267;51.156;17.044;2023-04-15T12:15:02;2;2;
70691;PMS5003;58267;51.156;17.044;2023-04-15T12:17:27;1;1;
70691;PMS5003;58267;51.156;17.044;2023-04-15T12:19:55;3;3;
70691;PMS5003;58267;51.156;17.044;2023-04-15T12:22:17;1;1;
70691;PMS5003;58267;51.156;17.044;2023-04-15T12:24:43;4;4;
70691;PMS5003;58267;51.156;17.044;2023-04-15T12:27:10;2;2;
70691;PMS5003;58267;51.156;17.044;2023-04-15T12:29:33;7;7;
70691;PMS5003;58267;51.156;17.044;2023-04-15T12:32:05;3;3;
70691;PMS5003;58267;51.156;17.044;2023-04-15T12:34:27;4;3;
70691;PMS5003;58267;51.156;17.044;2023-04-15T12:36:48;1;1;
70691;PMS5003;58267;51.156;17.044;2023-04-15T12:39:14;3;3;
70691;PMS5003;58267;51.156;17.044;2023-04-15T12:41:39;30;30;
70691;PMS5003;58267;51.156;17.044;2023-04-15T12:44:04;3;3;
70691;PMS5003;58267;51.156;17.044;2023-04-15T12:46:29;2;2;
70691;PMS5003;58267;51.156;17.044;2023-04-15T12:48:55;3;3;
70691;PMS5003;58267;51.156;17.044;2023-04-15T12:51:20;3;3;
70691;PMS5003;58267;51.156;17.044;2023-04-15T12:53:46;19;16;
70691;PMS5003;58267;51.156;17.044;2023-04-15T12:56:11;3;3;
70691;PMS5003;58267;51.156;17.044;2023-04-15T12:58:36;3;3;
70691;PMS5003;58267;51.156;17.044;2023-04-15T13:01:02;1;1;
70691;PMS5003;58267;51.156;17.044;2023-04-15T13:03:27;11;11;
70691;PMS5003;58267;51.156;17.044;2023-04-15T13:05:52;24;23;
70691;PMS5003;58267;51.156;17.044;2023-04-15T13:08:17;9;8;
70691;PMS5003;58267;51.156;17.044;2023-04-15T13:10:42;4;4;
70691;PMS5003;58267;51.156;17.044;2023-04-15T13:13:08;4;4;
70691;PMS5003;58267;51.156;17.044;2023-04-15T13:15:33;3;3;
70691;PMS5003;58267;51.156;17.044;2023-04-15T13:17:58;3;3;
70691;PMS5003;58267;51.156;17.044;2023-04-15T13:20:23;3;3;
70691;PMS5003;58267;51.156;17.044;2023-04-15T13:22:48;3;3;
70691;PMS5003;58267;51.156;17.044;2023-04-15T13:25:13;3;3;
70691;PMS5003;58267;51.156;17.044;2023-04-15T13:27:39;3;3;
70691;PMS5003;58267;51.156;17.044;2023-04-15T13:30:04;4;3;
70691;PMS5003;58267;51.156;17.044;2023-04-15T13:32:29;5;5;
70691;PMS5003;58267;51.156;17.044;2023-04-15T13:34:54;4;4;
70691;PMS5003;58267;51.156;17.044;2023-04-15T13:37:21;13;12;
70691;PMS5003;58267;51.156;17.044;2023-04-15T13:39:45;3;3;
70691;PMS5003;58267;51.156;17.044;2023-04-15T13:42:10;1;1;
70691;PMS5003;58267;51.156;17.044;2023-04-15T13:44:36;26;24;
70691;PMS5003;58267;51.156;17.044;2023-04-15T13:47:02;3;3;
70691;PMS5003;58267;51.156;17.044;2023-04-15T13:49:27;3;3;
70691;PMS5003;58267;51.156;17.044;2023-04-15T13:51:52;3;3;
70691;PMS5003;58267;51.156;17.044;2023-04-15T13:54:17;6;6;
70691;PMS5003;58267;51.156;17.044;2023-04-15T13:56:43;2;2;
70691;PMS5003;58267;51.156;17.044;2023-04-15T13:59:08;3;3;
70691;PMS5003;58267;51.156;17.044;2023-04-15T14:01:33;2;2;
70691;PMS5003;58267;51.156;17.044;2023-04-15T14:03:58;4;4;
70691;PMS5003;58267;51.156;17.044;2023-04-15T14:06:23;5;4;
70691;PMS5003;58267;51.156;17.044;2023-04-15T14:08:49;13;13;
70691;PMS5003;58267;51.156;17.044;2023-04-15T14:11:14;24;22;
70691;PMS5003;58267;51.156;17.044;2023-04-15T14:13:39;3;3;
70691;PMS5003;58267;51.156;17.044;2023-04-15T14:16:05;3;3;
70691;PMS5003;58267;51.156;17.044;2023-04-15T14:18:30;3;3;
70691;PMS5003;58267;51.156;17.044;2023-04-15T14:20:55;4;3;
70691;PMS5003;58267;51.156;17.044;2023-04-15T14:23:20;4;3;
70691;PMS5003;58267;51.156;17.044;2023-04-15T14:25:45;6;4;
70691;PMS5003;58267;51.156;17.044;2023-04-15T14:28:10;4;4;
70691;PMS5003;58267;51.156;17.044;2023-04-15T14:30:36;4;4;
70691;PMS5003;58267;51.156;17.044;2023-04-15T14:33:02;4;4;
70691;PMS5003;58267;51.156;17.044;2023-04-15T14:35:27;3;3;
70691;PMS5003;58267;51.156;17.044;2023-04-15T14:37:52;3;2;
70691;PMS5003;58267;51.156;17.044;2023-04-15T14:40:17;4;4;
70691;PMS5003;58267;51.156;17.044;2023-04-15T14:42:42;4;3;
70691;PMS5003;58267;51.156;17.044;2023-04-15T14:45:08;3;2;
70691;PMS5003;58267;51.156;17.044;2023-04-15T14:47:32;5;5;
70691;PMS5003;58267;51.156;17.044;2023-04-15T14:49:58;3;3;
70691;PMS5003;58267;51.156;17.044;2023-04-15T14:52:23;4;4;
70691;PMS5003;58267;51.156;17.044;2023-04-15T14:54:48;4;4;
70691;PMS5003;58267;51.156;17.044;2023-04-15T14:57:13;3;3;
70691;PMS5003;58267;51.156;17.044;2023-04-15T14:59:38;5;5;
70691;PMS5003;58267;51.156;17.044;2023-04-15T15:02:04;3;3;
70691;PMS5003;58267;51.156;17.044;2023-04-15T15:04:29;4;4;
70691;PMS5003;58267;51.156;17.044;2023-04-15T15:06:54;4;4;
70691;PMS5003;58267;51.156;17.044;2023-04-15T15:09:19;4;4;
70691;PMS5003;58267;51.156;17.044;2023-04-15T15:11:44;3;3;
70691;PMS5003;58267;51.156;17.044;2023-04-15T15:14:09;5;5;
70691;PMS5003;58267;51.156;17.044;2023-04-15T15:16:34;5;5;
70691;PMS5003;58267;51.156;17.044;2023-04-15T15:19:00;5;5;
70691;PMS5003;58267;51.156;17.044;2023-04-15T15:21:25;4;4;
70691;PMS5003;58267;51.156;17.044;2023-04-15T15:23:50;4;4;
70691;PMS5003;58267;51.156;17.044;2023-04-15T15:26:15;4;4;
70691;PMS5003;58267;51.156;17.044;2023-04-15T15:28:40;7;6;
70691;PMS5003;58267;51.156;17.044;2023-04-15T15:31:05;4;4;
70691;PMS5003;58267;51.156;17.044;2023-04-15T15:33:30;4;4;
70691;PMS5003;58267;51.156;17.044;2023-04-15T15:35:56;6;5;
70691;PMS5003;58267;51.156;17.044;2023-04-15T15:38:21;4;4;
70691;PMS5003;58267;51.156;17.044;2023-04-15T15:40:46;5;5;
70691;PMS5003;58267;51.156;17.044;2023-04-15T15:43:11;4;4;
70691;PMS5003;58267;51.156;17.044;2023-04-15T15:45:36;4;4;
70691;PMS5003;58267;51.156;17.044;2023-04-15T15:48:02;5;5;
70691;PMS5003;58267;51.156;17.044;2023-04-15T15:50:27;4;4;
70691;PMS5003;58267;51.156;17.044;2023-04-15T15:52:52;5;5;
70691;PMS5003;58267;51.156;17.044;2023-04-15T15:55:17;4;3;
70691;PMS5003;58267;51.156;17.044;2023-04-15T15:57:42;6;6;
70691;PMS5003;58267;51.156;17.044;2023-04-15T16:00:08;6;5;
70691;PMS5003;58267;51.156;17.044;2023-04-15T16:02:33;5;5;
70691;PMS5003;58267;51.156;17.044;2023-04-15T16:04:58;5;4;
70691;PMS5003;58267;51.156;17.044;2023-04-15T16:07:23;4;4;
70691;PMS5003;58267;51.156;17.044;2023-04-15T16:09:48;5;4;
70691;PMS5003;58267;51.156;17.044;2023-04-15T16:12:13;6;6;
70691;PMS5003;58267;51.156;17.044;2023-04-15T16:14:38;4;4;
70691;PMS5003;58267;51.156;17.044;2023-04-15T16:17:04;5;5;
70691;PMS5003;58267;51.156;17.044;2023-04-15T16:19:29;4;4;
70691;PMS5003;58267;51.156;17.044;2023-04-15T16:21:54;5;5;
70691;PMS5003;58267;51.156;17.044;2023-04-15T16:24:19;4;4;